createdAt,value
2023-04-28T00:00:06.857Z,2.10
2023-04-28T00:02:33.974Z,2.70
2023-04-28T00:05:01.485Z,1.90
2023-04-28T00:07:28.400Z,2.10
2023-04-28T00:09:56.496Z,1.80
2023-04-28T00:12:23.541Z,2.00
2023-04-28T00:14:50.625Z,2.20
2023-04-28T00:17:17.603Z,1.70
2023-04-28T00:19:44.694Z,2.10
2023-04-28T00:22:11.781Z,1.90
2023-04-28T00:24:38.893Z,2.00
2023-04-28T00:27:05.689Z,2.00
2023-04-28T00:29:32.880Z,2.40
2023-04-28T00:31:59.886Z,2.40
2023-04-28T00:34:27.438Z,2.10
2023-04-28T00:36:54.552Z,1.80
2023-04-28T00:39:22.930Z,1.80
2023-04-28T00:41:49.871Z,2.50
2023-04-28T00:44:17.397Z,2.00
2023-04-28T00:46:44.991Z,2.40
2023-04-28T00:49:11.850Z,2.10
2023-04-28T00:51:38.681Z,2.20
2023-04-28T00:54:06.377Z,2.30
2023-04-28T00:56:33.516Z,2.50
2023-04-28T00:59:00.438Z,2.20
2023-04-28T01:01:27.364Z,2.10
2023-04-28T01:03:54.564Z,2.10
2023-04-28T01:06:23.325Z,2.20
2023-04-28T01:08:50.864Z,1.90
2023-04-28T01:11:17.739Z,1.70
2023-04-28T01:14:10.662Z,1.80
2023-04-28T01:16:39.383Z,1.70
2023-04-28T01:19:13.902Z,1.70
2023-04-28T01:21:40.950Z,2.40
2023-04-28T01:24:16.412Z,1.90
2023-04-28T01:26:44.693Z,2.20
2023-04-28T01:29:11.968Z,1.80
2023-04-28T01:31:38.945Z,1.50
2023-04-28T01:34:06.086Z,2.00
2023-04-28T01:36:34.252Z,1.80
2023-04-28T01:39:03.499Z,1.70
2023-04-28T01:41:30.780Z,1.60
2023-04-28T01:43:57.661Z,1.60
2023-04-28T01:46:25.754Z,2.00
2023-04-28T01:48:52.990Z,1.80
2023-04-28T01:51:19.780Z,1.90
2023-04-28T01:53:46.714Z,1.90
2023-04-28T01:56:13.469Z,1.60
2023-04-28T01:58:40.813Z,1.60
2023-04-28T02:01:08.119Z,1.30
2023-04-28T02:03:35.490Z,1.50
2023-04-28T02:06:04.334Z,1.60
2023-04-28T02:08:31.828Z,1.90
2023-04-28T02:11:01.098Z,1.90
2023-04-28T02:13:28.636Z,1.80
2023-04-28T02:15:55.907Z,2.00
2023-04-28T02:18:22.843Z,2.20
2023-04-28T02:20:49.904Z,2.00
2023-04-28T02:23:17.799Z,1.80
2023-04-28T02:25:44.613Z,1.80
2023-04-28T02:28:13.690Z,1.70
2023-04-28T02:30:40.845Z,1.90
2023-04-28T02:33:07.809Z,2.10
2023-04-28T02:35:34.653Z,2.00
2023-04-28T02:38:01.531Z,1.90
2023-04-28T02:40:28.564Z,1.70
2023-04-28T02:42:55.390Z,1.80
2023-04-28T02:45:22.115Z,1.80
2023-04-28T02:47:48.984Z,1.50
2023-04-28T02:50:17.151Z,2.00
2023-04-28T02:52:43.841Z,1.70
2023-04-28T02:55:11.101Z,2.00
2023-04-28T02:57:38.008Z,1.70
2023-04-28T03:00:06.159Z,1.50
2023-04-28T03:02:39.526Z,1.90
2023-04-28T03:05:07.062Z,1.70
2023-04-28T03:07:33.951Z,1.50
2023-04-28T03:10:00.714Z,1.90
2023-04-28T03:12:27.579Z,1.70
2023-04-28T03:14:54.589Z,2.10
2023-04-28T03:17:21.447Z,1.60
2023-04-28T03:19:48.699Z,2.10
2023-04-28T03:22:15.744Z,1.60
2023-04-28T03:24:42.915Z,1.70
2023-04-28T03:27:09.832Z,2.00
2023-04-28T03:29:37.335Z,1.70
2023-04-28T03:32:04.813Z,2.20
2023-04-28T03:34:31.562Z,1.90
2023-04-28T03:36:58.749Z,1.90
2023-04-28T03:39:28.459Z,2.00
2023-04-28T03:41:55.611Z,2.00
2023-04-28T03:44:45.323Z,1.70
2023-04-28T03:47:12.955Z,2.20
2023-04-28T03:49:40.430Z,2.60
2023-04-28T03:52:07.456Z,2.20
2023-04-28T03:54:34.815Z,2.50
2023-04-28T03:57:02.269Z,2.30
2023-04-28T03:59:32.015Z,1.50
2023-04-28T04:01:59.245Z,2.00
2023-04-28T04:04:26.458Z,2.20
2023-04-28T04:06:54.264Z,2.10
2023-04-28T04:09:21.212Z,2.20
2023-04-28T04:11:47.823Z,2.20
2023-04-28T04:14:16.168Z,2.00
2023-04-28T04:16:43.174Z,2.30
2023-04-28T04:19:10.221Z,2.00
2023-04-28T04:21:41.197Z,1.80
2023-04-28T04:24:08.110Z,1.80
2023-04-28T04:26:35.380Z,1.80
2023-04-28T04:29:03.436Z,2.10
2023-04-28T04:31:32.669Z,2.30
2023-04-28T04:33:59.840Z,2.10
2023-04-28T04:36:27.765Z,2.00
2023-04-28T04:38:54.850Z,2.10
2023-04-28T04:41:22.572Z,1.80
2023-04-28T04:43:50.845Z,1.90
2023-04-28T04:46:17.936Z,2.10
2023-04-28T04:48:45.055Z,2.60
2023-04-28T04:51:11.789Z,1.60
2023-04-28T04:53:39.053Z,2.20
2023-04-28T04:56:06.082Z,2.20
2023-04-28T04:58:33.450Z,1.80
2023-04-28T05:01:18.858Z,1.90
2023-04-28T05:03:45.930Z,1.80
2023-04-28T05:06:12.931Z,1.80
2023-04-28T05:08:45.187Z,2.40
2023-04-28T05:11:12.047Z,1.70
2023-04-28T05:13:40.424Z,2.10
2023-04-28T05:16:07.010Z,2.20
2023-04-28T05:18:42.308Z,1.90
2023-04-28T05:21:11.167Z,1.90
2023-04-28T05:23:38.048Z,1.60
2023-04-28T05:26:04.995Z,2.10
2023-04-28T05:28:31.857Z,2.10
2023-04-28T05:30:58.990Z,2.10
2023-04-28T05:33:26.480Z,2.10
2023-04-28T05:35:53.491Z,2.00
2023-04-28T05:38:23.215Z,1.90
2023-04-28T05:40:51.187Z,1.50
2023-04-28T05:43:18.019Z,1.80
2023-04-28T05:45:45.400Z,1.50
2023-04-28T05:48:12.308Z,1.80
2023-04-28T05:50:39.317Z,1.50
2023-04-28T05:53:07.249Z,1.60
2023-04-28T05:55:35.821Z,1.50
2023-04-28T05:58:03.498Z,1.80
2023-04-28T06:00:31.186Z,2.30
2023-04-28T06:02:58.873Z,2.30
2023-04-28T06:05:26.245Z,1.80
2023-04-28T06:07:55.679Z,2.30
2023-04-28T06:10:23.026Z,1.80
2023-04-28T06:12:50.395Z,1.80
2023-04-28T06:15:17.309Z,1.60
2023-04-28T06:17:44.358Z,1.90
2023-04-28T06:20:13.381Z,1.70
2023-04-28T06:22:40.950Z,1.40
2023-04-28T06:25:08.606Z,1.80
2023-04-28T06:27:41.559Z,1.40
2023-04-28T06:30:09.476Z,1.60
2023-04-28T06:32:37.000Z,1.70
2023-04-28T06:35:04.491Z,1.80
2023-04-28T06:37:31.878Z,1.40
2023-04-28T06:39:58.783Z,1.40
2023-04-28T06:42:26.952Z,1.20
2023-04-28T06:45:04.659Z,1.80
2023-04-28T06:47:31.441Z,1.50
2023-04-28T06:50:01.468Z,1.50
2023-04-28T06:52:38.498Z,1.50
2023-04-28T06:55:08.890Z,1.50
2023-04-28T06:57:37.414Z,1.30
2023-04-28T07:00:05.399Z,1.00
2023-04-28T07:02:32.841Z,1.40
2023-04-28T07:05:00.004Z,1.40
2023-04-28T07:07:26.729Z,1.30
2023-04-28T07:09:53.657Z,1.20
2023-04-28T07:12:21.275Z,1.30
2023-04-28T07:14:48.406Z,1.70
2023-04-28T07:17:15.455Z,2.60
2023-04-28T07:19:42.190Z,2.00
2023-04-28T07:22:08.987Z,1.60
2023-04-28T07:24:35.963Z,2.10
2023-04-28T07:27:03.272Z,1.50
2023-04-28T07:29:33.559Z,1.50
2023-04-28T07:32:03.014Z,1.60
2023-04-28T07:34:31.242Z,1.20
2023-04-28T07:36:58.212Z,1.30
2023-04-28T07:39:25.032Z,1.40
2023-04-28T07:41:51.983Z,1.50
2023-04-28T07:44:19.038Z,1.30
2023-04-28T07:46:46.008Z,1.10
2023-04-28T07:49:12.732Z,1.30
2023-04-28T07:51:39.658Z,1.30
2023-04-28T07:54:06.682Z,1.50
2023-04-28T07:56:33.609Z,1.10
2023-04-28T07:59:00.648Z,1.30
2023-04-28T08:01:27.548Z,1.00
2023-04-28T08:03:54.775Z,1.50
2023-04-28T08:06:21.864Z,1.20
2023-04-28T08:08:48.802Z,1.30
2023-04-28T08:11:15.946Z,1.40
2023-04-28T08:13:43.001Z,1.30
2023-04-28T08:16:09.657Z,1.40
2023-04-28T08:18:36.819Z,1.20
2023-04-28T08:21:04.477Z,1.20
2023-04-28T08:23:31.499Z,1.70
2023-04-28T08:25:58.448Z,1.20
2023-04-28T08:28:25.700Z,1.30
2023-04-28T08:30:55.030Z,1.40
2023-04-28T08:33:23.308Z,1.40
2023-04-28T08:35:50.764Z,1.20
2023-04-28T08:38:17.722Z,1.80
2023-04-28T08:40:44.864Z,1.40
2023-04-28T08:43:13.235Z,1.20
2023-04-28T08:45:42.361Z,1.20
2023-04-28T08:48:19.869Z,1.10
2023-04-28T08:50:52.111Z,1.20
2023-04-28T08:53:25.238Z,1.30
2023-04-28T08:55:58.696Z,1.00
2023-04-28T08:58:26.743Z,1.00
2023-04-28T09:00:54.106Z,0.90
2023-04-28T09:03:21.438Z,0.80
2023-04-28T09:05:48.702Z,1.30
2023-04-28T09:08:15.448Z,0.90
2023-04-28T09:10:42.439Z,2.00
2023-04-28T09:13:09.238Z,1.50
2023-04-28T09:15:37.715Z,1.20
2023-04-28T09:18:05.734Z,1.70
2023-04-28T09:20:33.456Z,1.20
2023-04-28T09:23:15.796Z,1.50
2023-04-28T09:26:15.104Z,1.60
2023-04-28T09:28:41.893Z,1.50
2023-04-28T09:31:25.359Z,1.00
2023-04-28T09:33:59.487Z,1.50
2023-04-28T09:36:29.029Z,1.50
2023-04-28T09:38:59.736Z,1.40
2023-04-28T09:41:40.993Z,1.30
2023-04-28T09:44:18.488Z,1.00
2023-04-28T09:46:46.112Z,1.20
2023-04-28T09:49:13.206Z,1.30
2023-04-28T09:51:40.357Z,1.20
2023-04-28T09:54:07.142Z,1.40
2023-04-28T09:56:39.755Z,1.20
2023-04-28T09:59:06.625Z,1.10
2023-04-28T10:01:40.352Z,1.10
2023-04-28T10:06:38.130Z,1.10
2023-04-28T10:09:05.230Z,1.70
2023-04-28T10:11:33.446Z,1.30
2023-04-28T10:14:00.482Z,1.20
2023-04-28T10:16:29.956Z,1.10
2023-04-28T10:18:56.755Z,1.30
2023-04-28T10:21:24.220Z,1.30
2023-04-28T10:24:14.669Z,1.00
2023-04-28T10:27:05.324Z,1.40
2023-04-28T10:29:33.290Z,1.40
2023-04-28T10:32:20.638Z,1.20
2023-04-28T10:34:47.845Z,1.30
2023-04-28T10:37:15.069Z,1.70
2023-04-28T10:40:08.983Z,1.30
2023-04-28T10:43:06.706Z,1.30
2023-04-28T10:46:00.322Z,1.40
2023-04-28T10:48:33.189Z,0.90
2023-04-28T10:51:03.442Z,1.20
2023-04-28T10:53:46.465Z,1.10
2023-04-28T10:56:16.241Z,1.20
2023-04-28T10:58:45.522Z,1.10
2023-04-28T11:01:21.640Z,1.20
2023-04-28T11:03:50.902Z,1.30
2023-04-28T11:06:23.635Z,1.10
2023-04-28T11:08:50.662Z,1.70
2023-04-28T11:11:23.337Z,1.30
2023-04-28T11:13:50.187Z,1.20
2023-04-28T11:16:27.112Z,1.20
2023-04-28T11:18:58.374Z,0.80
2023-04-28T11:23:32.449Z,0.90
2023-04-28T11:25:59.215Z,1.10
2023-04-28T11:28:26.268Z,0.80
2023-04-28T11:31:10.901Z,1.10
2023-04-28T11:33:38.831Z,1.00
2023-04-28T11:36:06.942Z,1.40
2023-04-28T11:38:43.810Z,1.80
2023-04-28T11:41:10.612Z,1.70
2023-04-28T11:43:46.948Z,1.20
2023-04-28T11:46:19.038Z,1.10
2023-04-28T11:48:46.041Z,1.80
2023-04-28T11:51:33.128Z,0.90
2023-04-28T11:54:00.979Z,1.00
2023-04-28T11:56:28.522Z,1.00
2023-04-28T11:59:09.020Z,1.30
2023-04-28T12:02:11.826Z,0.90
2023-04-28T12:04:40.118Z,1.00
2023-04-28T12:07:17.408Z,0.90
2023-04-28T12:09:49.034Z,1.80
2023-04-28T12:12:40.118Z,1.50
2023-04-28T12:15:12.664Z,1.20
2023-04-28T12:17:41.290Z,0.90
2023-04-28T12:20:09.930Z,1.10
2023-04-28T12:22:44.507Z,1.20
2023-04-28T12:25:12.500Z,1.30
2023-04-28T12:27:40.810Z,1.40
2023-04-28T12:30:20.238Z,1.60
2023-04-28T12:32:47.500Z,1.40
2023-04-28T12:35:14.918Z,1.30
2023-04-28T12:37:42.449Z,1.30
2023-04-28T12:40:10.182Z,1.30
2023-04-28T12:42:37.026Z,1.30
2023-04-28T12:45:05.400Z,1.30
2023-04-28T12:47:32.208Z,1.20
2023-04-28T12:49:58.986Z,1.80
2023-04-28T12:52:25.859Z,1.40
2023-04-28T12:54:52.778Z,1.20
2023-04-28T12:57:19.766Z,1.40
2023-04-28T12:59:47.710Z,1.20
2023-04-28T13:02:15.052Z,1.40
2023-04-28T13:04:51.585Z,1.40
2023-04-28T13:07:18.702Z,1.20
2023-04-28T13:09:46.781Z,1.20
2023-04-28T13:12:14.474Z,1.10
2023-04-28T13:14:41.943Z,1.60
2023-04-28T13:17:10.096Z,1.50
2023-04-28T13:19:37.567Z,1.00
2023-04-28T13:22:06.289Z,1.00
2023-04-28T13:24:33.101Z,1.40
2023-04-28T13:27:00.024Z,1.60
2023-04-28T13:29:26.976Z,1.30
2023-04-28T13:31:54.400Z,1.40
2023-04-28T13:34:21.436Z,1.40
2023-04-28T13:36:50.773Z,1.70
2023-04-28T13:39:19.677Z,1.60
2023-04-28T13:41:46.576Z,1.70
2023-04-28T13:44:13.480Z,1.40
2023-04-28T13:46:41.047Z,1.90
2023-04-28T13:49:11.411Z,1.40
2023-04-28T13:51:38.787Z,1.70
2023-04-28T13:54:08.380Z,1.40
2023-04-28T13:56:36.037Z,1.50
2023-04-28T13:59:03.082Z,1.40
2023-04-28T14:01:30.377Z,1.70
2023-04-28T14:03:57.436Z,1.20
2023-04-28T14:06:24.641Z,1.40
2023-04-28T14:08:51.904Z,1.30
2023-04-28T14:11:19.322Z,1.50
2023-04-28T14:13:46.296Z,1.60
2023-04-28T14:16:13.499Z,1.40
2023-04-28T14:18:40.909Z,1.20
2023-04-28T14:21:07.917Z,1.50
2023-04-28T14:23:34.999Z,1.40
2023-04-28T14:26:01.962Z,1.00
2023-04-28T14:28:29.129Z,1.00
2023-04-28T14:30:56.173Z,1.20
2023-04-28T14:33:23.680Z,1.30
2023-04-28T14:35:50.527Z,1.00
2023-04-28T14:38:17.444Z,0.70
2023-04-28T14:40:44.349Z,1.20
2023-04-28T14:43:11.517Z,1.20
2023-04-28T14:45:38.462Z,1.10
2023-04-28T14:48:07.390Z,1.50
2023-04-28T14:50:34.610Z,1.50
2023-04-28T14:53:06.347Z,1.30
2023-04-28T14:55:33.218Z,1.80
2023-04-28T14:58:00.451Z,1.30
2023-04-28T15:00:27.402Z,1.70
2023-04-28T15:02:54.537Z,1.50
2023-04-28T15:05:21.496Z,1.00
2023-04-28T15:07:48.567Z,1.30
2023-04-28T15:10:15.723Z,1.20
2023-04-28T15:12:43.867Z,0.80
2023-04-28T15:15:11.478Z,1.50
2023-04-28T15:17:40.116Z,1.60
2023-04-28T15:20:08.036Z,1.60
2023-04-28T15:22:36.279Z,1.60
2023-04-28T15:25:03.725Z,1.40
2023-04-28T15:27:31.700Z,1.20
2023-04-28T15:29:58.774Z,1.40
2023-04-28T15:32:26.231Z,1.60
2023-04-28T15:34:54.217Z,1.30
2023-04-28T15:37:41.101Z,1.30
2023-04-28T15:40:11.935Z,1.40
2023-04-28T15:42:48.215Z,1.20
2023-04-28T15:45:15.951Z,1.90
2023-04-28T15:47:43.009Z,1.40
2023-04-28T15:50:10.464Z,1.70
2023-04-28T15:52:47.495Z,1.50
2023-04-28T15:55:18.246Z,1.80
2023-04-28T15:57:46.102Z,1.50
2023-04-28T16:00:15.069Z,1.80
2023-04-28T16:02:43.385Z,2.10
2023-04-28T16:05:10.789Z,2.00
2023-04-28T16:07:40.107Z,1.20
2023-04-28T16:10:08.757Z,1.60
2023-04-28T16:12:36.388Z,1.50
2023-04-28T16:15:03.596Z,1.50
2023-04-28T16:17:30.590Z,1.70
2023-04-28T16:19:57.478Z,1.40
2023-04-28T16:22:24.845Z,1.40
2023-04-28T16:24:53.393Z,1.30
2023-04-28T16:27:20.475Z,1.80
2023-04-28T16:29:47.328Z,1.30
2023-04-28T16:32:14.744Z,1.70
2023-04-28T16:34:42.170Z,1.50
2023-04-28T16:37:10.412Z,1.50
2023-04-28T16:39:37.380Z,2.00
2023-04-28T16:42:05.015Z,1.50
2023-04-28T16:44:32.033Z,1.70
2023-04-28T16:46:59.631Z,2.20
2023-04-28T16:49:26.600Z,2.10
2023-04-28T16:52:00.829Z,1.50
2023-04-28T16:54:28.380Z,1.50
2023-04-28T16:56:55.701Z,1.80
2023-04-28T16:59:22.982Z,1.50
2023-04-28T17:01:49.949Z,1.20
2023-04-28T17:04:17.504Z,1.40
2023-04-28T17:06:45.137Z,1.50
2023-04-28T17:09:12.339Z,1.90
2023-04-28T17:11:39.337Z,2.20
2023-04-28T17:14:06.698Z,2.20
2023-04-28T17:16:34.251Z,2.10
2023-04-28T17:19:01.380Z,2.30
2023-04-28T17:21:28.606Z,1.90
2023-04-28T17:23:59.085Z,2.40
2023-04-28T17:26:27.082Z,1.80
2023-04-28T17:28:55.243Z,1.80
2023-04-28T17:31:22.653Z,1.80
2023-04-28T17:33:50.971Z,2.60
2023-04-28T17:36:18.841Z,2.10
2023-04-28T17:38:45.911Z,1.80
2023-04-28T17:41:12.933Z,2.10
2023-04-28T17:43:39.988Z,2.60
2023-04-28T17:46:07.270Z,2.50
2023-04-28T17:48:34.522Z,2.10
2023-04-28T17:51:01.440Z,2.70
2023-04-28T17:53:28.280Z,6.20
2023-04-28T17:55:55.247Z,7.40
2023-04-28T17:58:22.790Z,3.70
2023-04-28T18:00:49.955Z,3.60
2023-04-28T18:03:16.841Z,3.00
2023-04-28T18:05:43.780Z,2.30
2023-04-28T18:08:10.678Z,2.30
2023-04-28T18:10:37.518Z,1.80
2023-04-28T18:13:05.908Z,2.40
2023-04-28T18:15:32.679Z,2.20
2023-04-28T18:17:59.851Z,2.40
2023-04-28T18:20:27.614Z,2.00
2023-04-28T18:22:56.156Z,1.80
2023-04-28T18:25:23.391Z,1.40
2023-04-28T18:27:50.552Z,2.00
2023-04-28T18:30:17.602Z,1.90
2023-04-28T18:32:44.549Z,1.80
2023-04-28T18:35:12.108Z,1.70
2023-04-28T18:37:38.919Z,1.50
2023-04-28T18:40:06.257Z,1.80
2023-04-28T18:42:33.666Z,2.50
2023-04-28T18:45:00.997Z,2.10
2023-04-28T18:47:28.259Z,2.50
2023-04-28T18:49:55.729Z,3.20
2023-04-28T18:52:22.781Z,2.20
2023-04-28T18:54:49.827Z,2.40
2023-04-28T18:57:16.521Z,2.40
2023-04-28T18:59:43.623Z,2.10
2023-04-28T19:02:10.848Z,3.40
2023-04-28T19:04:41.549Z,3.80
2023-04-28T19:07:08.658Z,3.70
2023-04-28T19:09:35.722Z,3.40
2023-04-28T19:12:03.091Z,3.60
2023-04-28T19:14:30.529Z,3.00
2023-04-28T19:16:57.307Z,2.80
2023-04-28T19:19:24.322Z,2.90
2023-04-28T19:21:52.195Z,2.20
2023-04-28T19:24:19.137Z,2.50
2023-04-28T19:26:46.099Z,2.80
2023-04-28T19:29:16.611Z,2.70
2023-04-28T19:31:44.070Z,2.70
2023-04-28T19:34:11.117Z,2.50
2023-04-28T19:36:37.859Z,2.70
2023-04-28T19:39:05.218Z,2.60
2023-04-28T19:41:32.466Z,2.60
2023-04-28T19:43:59.510Z,2.90
2023-04-28T19:46:26.444Z,3.00
2023-04-28T19:48:53.625Z,2.40
2023-04-28T19:51:20.790Z,2.30
2023-04-28T19:53:48.333Z,2.70
2023-04-28T19:56:15.113Z,2.40
2023-04-28T19:58:42.122Z,3.00
2023-04-28T20:01:08.908Z,3.40
2023-04-28T20:03:36.319Z,2.30
2023-04-28T20:06:03.780Z,2.70
2023-04-28T20:08:30.719Z,2.60
2023-04-28T20:10:57.775Z,3.20
2023-04-28T20:13:25.652Z,2.80
2023-04-28T20:15:53.664Z,2.60
2023-04-28T20:18:20.682Z,3.10
2023-04-28T20:20:47.434Z,3.20
2023-04-28T20:23:14.277Z,2.90
2023-04-28T20:25:41.334Z,3.00
2023-04-28T20:28:08.358Z,2.60
2023-04-28T20:30:36.222Z,3.30
2023-04-28T20:33:03.449Z,3.40
2023-04-28T20:35:31.544Z,3.20
2023-04-28T20:37:58.798Z,2.80
2023-04-28T20:40:25.739Z,2.90
2023-04-28T20:42:52.952Z,3.10
2023-04-28T20:45:20.672Z,3.10
2023-04-28T20:47:47.565Z,3.10
2023-04-28T20:50:15.205Z,3.50
2023-04-28T20:52:42.231Z,3.40
2023-04-28T20:55:10.054Z,3.50
2023-04-28T20:57:37.078Z,3.60
2023-04-28T21:00:06.338Z,3.10
2023-04-28T21:02:33.423Z,3.40
2023-04-28T21:05:01.352Z,3.20
2023-04-28T21:07:28.840Z,2.90
2023-04-28T21:09:57.678Z,3.90
2023-04-28T21:12:24.783Z,3.50
2023-04-28T21:14:52.029Z,2.90
2023-04-28T21:17:19.044Z,3.60
2023-04-28T21:19:45.978Z,3.60
2023-04-28T21:22:14.181Z,3.30
2023-04-28T21:24:41.127Z,2.90
2023-04-28T21:27:08.698Z,3.80
2023-04-28T21:29:35.745Z,3.40
2023-04-28T21:32:02.870Z,3.30
2023-04-28T21:34:30.159Z,3.50
2023-04-28T21:36:57.908Z,3.40
2023-04-28T21:39:27.167Z,3.30
2023-04-28T21:41:54.373Z,3.60
2023-04-28T21:48:52.065Z,3.90
2023-04-28T21:51:19.015Z,4.00
2023-04-28T21:53:45.961Z,3.10
2023-04-28T21:56:14.587Z,3.10
2023-04-28T21:58:41.553Z,3.10
2023-04-28T22:01:08.249Z,3.00
2023-04-28T22:03:35.724Z,2.70
2023-04-28T22:06:02.981Z,2.80
2023-04-28T22:08:30.983Z,3.10
2023-04-28T22:10:57.628Z,2.70
2023-04-28T22:13:24.717Z,3.20
2023-04-28T22:15:51.596Z,3.00
2023-04-28T22:18:19.006Z,3.00
2023-04-28T22:20:46.369Z,3.10
2023-04-28T22:23:13.615Z,3.20
2023-04-28T22:25:40.642Z,2.70
2023-04-28T22:28:07.541Z,2.70
2023-04-28T22:30:34.566Z,3.20
2023-04-28T22:33:01.435Z,2.50
2023-04-28T22:35:28.114Z,3.10
2023-04-28T22:37:54.893Z,3.00
2023-04-28T22:40:22.038Z,3.10
2023-04-28T22:42:49.303Z,2.50
2023-04-28T22:45:16.470Z,3.10
2023-04-28T22:47:43.365Z,3.10
2023-04-28T22:50:10.852Z,2.90
2023-04-28T22:52:38.519Z,2.50
2023-04-28T22:55:05.977Z,2.60
2023-04-28T22:57:33.767Z,2.70
2023-04-28T23:00:01.493Z,2.80
2023-04-28T23:02:28.960Z,3.00
2023-04-28T23:04:56.525Z,3.00
2023-04-28T23:07:23.883Z,2.70
2023-04-28T23:09:51.074Z,3.10
2023-04-28T23:12:18.289Z,2.60
2023-04-28T23:14:45.083Z,2.70
2023-04-28T23:17:12.179Z,2.40
2023-04-28T23:19:39.126Z,2.60
2023-04-28T23:22:07.219Z,2.70
2023-04-28T23:24:36.204Z,3.00
2023-04-28T23:27:03.168Z,2.50
2023-04-28T23:29:30.024Z,2.50
2023-04-28T23:31:57.353Z,3.00
2023-04-28T23:34:24.697Z,2.60
2023-04-28T23:36:51.540Z,2.50
2023-04-28T23:39:18.429Z,2.20
2023-04-28T23:41:45.356Z,2.70
2023-04-28T23:44:12.371Z,2.90
2023-04-28T23:46:39.505Z,3.20
2023-04-28T23:49:06.578Z,2.60
2023-04-28T23:51:33.467Z,2.40
2023-04-28T23:54:01.507Z,2.60
2023-04-28T23:56:28.564Z,2.40
2023-04-28T23:58:55.703Z,2.50
